Time;durP1;ratioP1;P1;durP2;ratioP2;P2;SDS_P1;SDS_P2;PMS_P1;PMS_P2;Temp;Humidity;BMP_temperature;BMP_pressure;BME280_temperature;BME280_humidity;BME280_pressure;Samples;Min_cycle;Max_cycle;Signal;HPM_P1;HPM_P2
2023/06/17 00:01:41;;;;;;;0.88;0.80;;;17.10;99.90;;;;;;5144506;27;20083;-66
2023/06/17 00:04:07;;;;;;;0.10;0.10;;;17.10;99.90;;;;;;5145633;27;20043;-66
2023/06/17 00:06:32;;;;;;;1.65;0.47;;;17.10;99.90;;;;;;5145532;27;20046;-66
2023/06/17 00:08:59;;;;;;;0.10;0.10;;;17.10;99.90;;;;;;5146336;27;20031;-66
2023/06/17 00:11:28;;;;;;;0.38;0.38;;;17.00;99.90;;;;;;5142009;27;20047;-66
2023/06/17 00:13:54;;;;;;;0.35;0.35;;;17.10;99.90;;;;;;5140206;27;20512;-67
2023/06/17 00:16:20;;;;;;;0.20;0.20;;;17.10;99.90;;;;;;5142991;27;20038;-66
2023/06/17 00:18:47;;;;;;;0.85;0.20;;;17.10;99.90;;;;;;5132494;27;20654;-66
2023/06/17 00:21:14;;;;;;;0.10;0.10;;;17.10;99.90;;;;;;5142486;27;20050;-66
2023/06/17 00:23:39;;;;;;;0.65;0.65;;;17.10;99.90;;;;;;5142745;27;20039;-66
2023/06/17 00:26:05;;;;;;;2.42;0.85;;;17.00;99.90;;;;;;5124784;27;20496;-66
2023/06/17 00:28:31;;;;;;;0.75;0.50;;;17.10;99.90;;;;;;5142682;27;20043;-66
2023/06/17 00:30:56;;;;;;;0.00;0.00;;;17.10;99.90;;;;;;5148249;27;20405;-66
2023/06/17 00:33:22;;;;;;;0.20;0.20;;;17.00;99.90;;;;;;5140868;27;20043;-66
2023/06/17 00:35:48;;;;;;;0.25;0.25;;;17.00;99.90;;;;;;5145075;27;20042;-66
2023/06/17 00:38:13;;;;;;;0.70;0.15;;;17.00;99.90;;;;;;5142821;27;20049;-66
2023/06/17 00:40:39;;;;;;;0.20;0.13;;;17.00;99.90;;;;;;5118543;27;20043;-66
2023/06/17 00:43:04;;;;;;;0.05;0.05;;;17.00;99.90;;;;;;5144321;27;20031;-66
2023/06/17 00:45:38;;;;;;;2.17;1.50;;;17.00;99.90;;;;;;5144977;27;20043;-66
2023/06/17 00:48:08;;;;;;;0.08;0.08;;;17.00;99.90;;;;;;5142548;27;20043;-66
2023/06/17 00:50:36;;;;;;;0.25;0.25;;;17.10;99.90;;;;;;5145910;27;20450;-66
2023/06/17 00:53:02;;;;;;;0.30;0.30;;;17.00;99.90;;;;;;5142697;27;20122;-66
2023/06/17 00:55:28;;;;;;;3.33;0.95;;;17.00;99.90;;;;;;5136941;27;20507;-66
2023/06/17 00:57:53;;;;;;;0.10;0.10;;;17.00;99.90;;;;;;5146638;27;20035;-66
2023/06/17 01:00:19;;;;;;;0.20;0.20;;;17.00;99.90;;;;;;5142956;27;20042;-67
2023/06/17 01:02:46;;;;;;;0.47;0.40;;;16.90;99.90;;;;;;5146057;27;20105;-66
2023/06/17 01:05:14;;;;;;;0.30;0.30;;;16.80;99.90;;;;;;5144747;27;20043;-66
2023/06/17 01:08:08;;;;;;;2.05;1.45;;;16.80;99.90;;;;;;5138367;27;20032;-66
2023/06/17 01:10:44;;;;;;;0.30;0.30;;;16.80;99.90;;;;;;5143881;27;20046;-66
2023/06/17 01:13:12;;;;;;;0.88;0.50;;;16.70;99.90;;;;;;5145427;27;20394;-66
2023/06/17 01:15:37;;;;;;;0.52;0.52;;;16.70;99.90;;;;;;5141060;27;20125;-66
2023/06/17 01:18:04;;;;;;;0.52;0.52;;;16.50;99.90;;;;;;5124309;27;20574;-65
2023/06/17 01:20:32;;;;;;;0.43;0.43;;;16.50;99.90;;;;;;5141218;27;20043;-66
2023/06/17 01:22:59;;;;;;;0.30;0.30;;;16.50;99.90;;;;;;5149945;27;20053;-66
2023/06/17 01:25:29;;;;;;;0.30;0.30;;;16.40;99.90;;;;;;5142945;27;20042;-67
2023/06/17 01:28:13;;;;;;;0.05;0.05;;;16.40;99.90;;;;;;5142360;27;20054;-66
2023/06/17 01:30:39;;;;;;;2.63;0.65;;;16.30;99.90;;;;;;5142935;27;20379;-66
2023/06/17 01:33:05;;;;;;;0.32;0.28;;;16.30;99.90;;;;;;5126235;27;20043;-66
2023/06/17 01:35:32;;;;;;;0.13;0.10;;;16.30;99.90;;;;;;5140990;27;20114;-66
2023/06/17 01:38:07;;;;;;;2.70;1.23;;;16.30;99.90;;;;;;5149769;27;20143;-66
2023/06/17 01:40:34;;;;;;;0.10;0.10;;;16.30;99.90;;;;;;5144315;27;20497;-66
2023/06/17 01:43:02;;;;;;;0.30;0.30;;;16.30;99.90;;;;;;5143112;27;20089;-66
2023/06/17 01:45:30;;;;;;;1.85;0.52;;;16.40;99.90;;;;;;5140360;27;20038;-66
2023/06/17 01:47:55;;;;;;;0.00;0.00;;;16.50;99.90;;;;;;5143835;27;20107;-66
2023/06/17 01:50:21;;;;;;;0.00;0.00;;;16.50;99.90;;;;;;5141407;27;20043;-66
2023/06/17 01:52:47;;;;;;;0.30;0.30;;;16.60;99.90;;;;;;5141344;27;20433;-66
2023/06/17 01:55:13;;;;;;;0.63;0.40;;;16.70;99.90;;;;;;5146592;27;20068;-66
2023/06/17 01:57:39;;;;;;;0.10;0.10;;;16.70;99.90;;;;;;5151175;27;20485;-66
2023/06/17 02:00:06;;;;;;;0.10;0.10;;;16.80;99.90;;;;;;5144900;27;20140;-66
2023/06/17 02:02:31;;;;;;;0.03;0.03;;;16.90;99.90;;;;;;5142310;27;20039;-66
2023/06/17 02:04:57;;;;;;;0.35;0.35;;;16.90;99.90;;;;;;5151766;27;20443;-66
2023/06/17 02:07:25;;;;;;;0.10;0.10;;;16.90;99.90;;;;;;5143844;27;20047;-66
2023/06/17 02:09:51;;;;;;;0.30;0.30;;;17.00;99.90;;;;;;5140975;27;20039;-66
2023/06/17 02:12:17;;;;;;;0.30;0.30;;;17.10;99.90;;;;;;5146639;27;20047;-66
2023/06/17 02:14:42;;;;;;;0.15;0.15;;;17.10;99.90;;;;;;5139018;27;20039;-66
2023/06/17 02:17:11;;;;;;;0.45;0.45;;;17.10;99.90;;;;;;5141997;27;20464;-66
2023/06/17 02:19:37;;;;;;;0.10;0.10;;;17.10;99.90;;;;;;5144306;27;20039;-66
2023/06/17 02:22:04;;;;;;;0.28;0.28;;;17.10;99.90;;;;;;5142800;27;20035;-66
2023/06/17 02:24:30;;;;;;;0.00;0.00;;;17.10;99.90;;;;;;5139836;27;20521;-66
2023/06/17 02:26:56;;;;;;;0.15;0.15;;;17.10;99.90;;;;;;5143990;27;20031;-66
2023/06/17 02:29:22;;;;;;;0.20;0.20;;;17.20;99.90;;;;;;5144424;27;20055;-66
2023/06/17 02:31:47;;;;;;;0.70;0.70;;;17.20;99.90;;;;;;5141474;27;20069;-66
2023/06/17 02:34:13;;;;;;;1.25;0.20;;;17.20;99.90;;;;;;5134476;27;20091;-66
2023/06/17 02:36:39;;;;;;;2.75;0.85;;;17.20;99.90;;;;;;5146555;27;20035;-66
2023/06/17 02:39:05;;;;;;;0.10;0.10;;;17.30;99.90;;;;;;5146644;27;20539;-66
2023/06/17 02:41:31;;;;;;;0.22;0.22;;;17.30;99.90;;;;;;5153555;27;20062;-66
2023/06/17 02:43:57;;;;;;;0.65;0.30;;;17.30;99.90;;;;;;5144791;27;20402;-66
2023/06/17 02:46:24;;;;;;;0.20;0.15;;;17.30;99.90;;;;;;5147868;27;20050;-66
2023/06/17 02:48:50;;;;;;;0.40;0.40;;;17.30;99.90;;;;;;5148011;27;20411;-67
2023/06/17 02:51:16;;;;;;;0.10;0.10;;;17.30;99.90;;;;;;5126400;27;20149;-66
2023/06/17 02:53:42;;;;;;;0.40;0.40;;;17.30;99.90;;;;;;5145405;27;20039;-66
2023/06/17 02:56:07;;;;;;;0.40;0.38;;;17.30;99.90;;;;;;5138518;27;20051;-66
2023/06/17 02:58:34;;;;;;;0.17;0.17;;;17.30;99.90;;;;;;5143542;27;20035;-66
2023/06/17 03:00:59;;;;;;;0.52;0.52;;;17.30;99.90;;;;;;5148025;27;20042;-66
2023/06/17 03:03:35;;;;;;;0.00;0.00;;;17.30;99.90;;;;;;5146100;27;20463;-66
2023/06/17 03:06:03;;;;;;;0.30;0.30;;;17.30;99.90;;;;;;5122772;27;20043;-66
2023/06/17 03:08:33;;;;;;;0.10;0.10;;;17.30;99.90;;;;;;5146335;27;20128;-66
2023/06/17 03:10:59;;;;;;;0.30;0.30;;;17.30;99.90;;;;;;5147392;27;20037;-66
2023/06/17 03:13:26;;;;;;;0.88;0.88;;;17.30;99.90;;;;;;5145118;27;20104;-67
2023/06/17 03:15:53;;;;;;;0.52;0.52;;;17.30;99.90;;;;;;5148921;27;20125;-66
2023/06/17 03:18:21;;;;;;;0.10;0.10;;;17.40;99.90;;;;;;5147724;27;20105;-66
2023/06/17 03:20:46;;;;;;;1.75;0.43;;;17.30;99.90;;;;;;5121831;27;20058;-66
2023/06/17 03:23:12;;;;;;;0.57;0.57;;;17.30;99.90;;;;;;5143715;27;20482;-66
2023/06/17 03:25:38;;;;;;;0.32;0.32;;;17.20;99.90;;;;;;5150581;27;20034;-66
2023/06/17 03:28:04;;;;;;;0.20;0.20;;;17.30;99.90;;;;;;5139530;27;20362;-66
2023/06/17 03:30:30;;;;;;;0.30;0.20;;;17.30;99.90;;;;;;5145917;27;20044;-66
2023/06/17 03:32:57;;;;;;;0.47;0.45;;;17.30;99.90;;;;;;5147487;27;20091;-66
2023/06/17 03:35:23;;;;;;;0.05;0.05;;;17.30;99.90;;;;;;5147008;27;20130;-66
2023/06/17 03:37:49;;;;;;;0.30;0.30;;;17.30;99.90;;;;;;5153597;27;20427;-66
2023/06/17 03:40:15;;;;;;;0.20;0.20;;;17.30;99.90;;;;;;5140873;27;20047;-66
2023/06/17 03:42:40;;;;;;;0.65;0.55;;;17.30;99.90;;;;;;5143301;27;20442;-66
2023/06/17 03:45:07;;;;;;;0.25;0.25;;;17.30;99.90;;;;;;5143205;27;20066;-66
2023/06/17 03:47:32;;;;;;;0.20;0.20;;;17.20;99.90;;;;;;5124421;27;20046;-66
2023/06/17 03:49:58;;;;;;;0.52;0.52;;;17.20;99.90;;;;;;5130651;27;20130;-66
2023/06/17 03:52:24;;;;;;;0.57;0.55;;;17.30;99.90;;;;;;5140230;27;20043;-66
2023/06/17 03:54:50;;;;;;;0.43;0.43;;;17.40;99.90;;;;;;5144654;27;20034;-67
2023/06/17 03:57:15;;;;;;;0.15;0.15;;;17.30;99.90;;;;;;5149080;27;20034;-66
2023/06/17 03:59:41;;;;;;;0.10;0.10;;;17.30;99.90;;;;;;5143215;27;20083;-66
2023/06/17 04:02:07;;;;;;;0.32;0.30;;;17.30;99.90;;;;;;5123089;27;20043;-66
2023/06/17 04:04:34;;;;;;;0.20;0.20;;;17.40;99.90;;;;;;5145189;27;20043;-66
2023/06/17 04:07:00;;;;;;;0.63;0.63;;;17.30;99.90;;;;;;5143210;27;20085;-66
2023/06/17 04:09:26;;;;;;;0.43;0.43;;;17.30;99.90;;;;;;5144226;27;20521;-66
2023/06/17 04:11:52;;;;;;;4.00;0.93;;;17.40;99.90;;;;;;5147928;27;20031;-66
2023/06/17 04:14:17;;;;;;;0.63;0.63;;;17.40;99.90;;;;;;5149576;27;20080;-66
2023/06/17 04:16:46;;;;;;;0.20;0.20;;;17.40;99.90;;;;;;5144972;27;20102;-66
2023/06/17 04:19:13;;;;;;;1.75;0.70;;;17.40;99.90;;;;;;5127607;27;20474;-66
2023/06/17 04:21:39;;;;;;;0.28;0.20;;;17.40;99.90;;;;;;5143973;27;20406;-66
2023/06/17 04:24:05;;;;;;;2.03;0.40;;;17.40;99.90;;;;;;5142420;27;20424;-66
2023/06/17 04:26:31;;;;;;;0.00;0.00;;;17.40;99.90;;;;;;5142658;27;20104;-66
2023/06/17 04:28:56;;;;;;;0.10;0.10;;;17.40;99.90;;;;;;5145844;27;20062;-66
2023/06/17 04:31:22;;;;;;;0.00;0.00;;;17.40;99.90;;;;;;5145178;27;20495;-66
2023/06/17 04:33:48;;;;;;;0.17;0.17;;;17.50;99.90;;;;;;5145344;27;20110;-66
2023/06/17 04:36:17;;;;;;;0.13;0.13;;;17.40;99.90;;;;;;5142396;27;20046;-67
2023/06/17 04:38:42;;;;;;;0.90;0.90;;;17.50;99.90;;;;;;5144882;27;20423;-66
2023/06/17 04:41:08;;;;;;;0.17;0.17;;;17.50;99.90;;;;;;5143940;27;20077;-66
2023/06/17 04:43:36;;;;;;;0.55;0.55;;;17.50;99.90;;;;;;5140585;27;20055;-66
2023/06/17 04:46:02;;;;;;;0.95;0.95;;;17.60;99.90;;;;;;5146980;27;20490;-66
2023/06/17 04:48:31;;;;;;;0.52;0.52;;;17.50;99.90;;;;;;5142500;27;20079;-66
2023/06/17 04:50:57;;;;;;;0.55;0.40;;;17.50;99.90;;;;;;5139932;27;20546;-66
2023/06/17 04:53:23;;;;;;;0.10;0.10;;;17.50;99.90;;;;;;5145501;27;20430;-66
2023/06/17 04:55:49;;;;;;;8.05;0.85;;;17.50;99.90;;;;;;5145147;27;20069;-66
2023/06/17 04:58:15;;;;;;;0.75;0.75;;;17.60;99.90;;;;;;5142438;27;20064;-66
2023/06/17 05:00:40;;;;;;;0.47;0.47;;;17.60;99.90;;;;;;5141731;27;20080;-66
2023/06/17 05:03:06;;;;;;;0.88;0.85;;;17.60;99.90;;;;;;5141999;27;20047;-66
2023/06/17 05:05:31;;;;;;;2.08;1.63;;;17.50;99.90;;;;;;5142190;27;20043;-66
2023/06/17 05:07:57;;;;;;;0.25;0.25;;;17.60;99.90;;;;;;5142993;27;20072;-66
2023/06/17 05:10:22;;;;;;;8.07;1.33;;;17.60;99.90;;;;;;5143695;27;20035;-66
2023/06/17 05:12:48;;;;;;;2.40;1.23;;;17.60;99.90;;;;;;5147665;27;20076;-66
2023/06/17 05:15:14;;;;;;;0.22;0.22;;;17.60;99.90;;;;;;5124392;27;20095;-66
2023/06/17 05:17:39;;;;;;;0.57;0.45;;;17.60;99.90;;;;;;5143487;27;20039;-66
2023/06/17 05:20:06;;;;;;;2.42;1.45;;;17.70;99.90;;;;;;5142017;27;20053;-67
2023/06/17 05:22:31;;;;;;;1.85;0.32;;;17.60;99.90;;;;;;5142450;27;20031;-67
2023/06/17 05:24:57;;;;;;;0.00;0.00;;;17.70;99.90;;;;;;5144851;27;20545;-67
2023/06/17 05:27:23;;;;;;;0.88;0.88;;;17.70;99.90;;;;;;5136140;27;20039;-66
2023/06/17 05:29:49;;;;;;;0.75;0.43;;;17.70;99.90;;;;;;5149620;27;20082;-66
2023/06/17 05:32:15;;;;;;;1.27;1.17;;;17.80;99.90;;;;;;5141500;27;20077;-66
2023/06/17 05:34:40;;;;;;;0.10;0.08;;;17.80;99.90;;;;;;5140580;27;20043;-66
2023/06/17 05:37:06;;;;;;;0.08;0.08;;;17.90;99.90;;;;;;5139537;27;20110;-66
2023/06/17 05:39:31;;;;;;;0.47;0.45;;;17.80;99.90;;;;;;5141322;27;20047;-66
2023/06/17 05:41:57;;;;;;;4.22;1.95;;;17.80;99.90;;;;;;5141042;27;20050;-66
2023/06/17 05:44:23;;;;;;;0.35;0.32;;;17.80;99.90;;;;;;5123322;28;20087;-66
2023/06/17 05:46:48;;;;;;;1.05;0.95;;;17.80;99.90;;;;;;5138642;27;20070;-66
2023/06/17 05:49:15;;;;;;;0.28;0.28;;;17.90;99.90;;;;;;5142119;27;20735;-66
2023/06/17 05:51:41;;;;;;;0.68;0.68;;;17.90;99.90;;;;;;5141344;27;20113;-66
2023/06/17 05:54:06;;;;;;;0.25;0.25;;;18.00;99.90;;;;;;5141792;27;20200;-66
2023/06/17 05:56:32;;;;;;;0.20;0.20;;;18.00;99.90;;;;;;5143586;27;20038;-66
2023/06/17 05:58:58;;;;;;;0.32;0.32;;;18.00;99.90;;;;;;5149395;27;20050;-66
2023/06/17 06:01:23;;;;;;;1.77;0.55;;;18.00;99.90;;;;;;5150465;27;20508;-66
2023/06/17 06:03:49;;;;;;;0.00;0.00;;;18.00;99.90;;;;;;5144397;27;20038;-66
2023/06/17 06:06:14;;;;;;;0.95;0.82;;;18.00;99.90;;;;;;5142072;27;20034;-66
2023/06/17 06:08:40;;;;;;;0.65;0.65;;;18.00;99.90;;;;;;5135444;27;20510;-66
2023/06/17 06:11:05;;;;;;;0.03;0.03;;;18.00;99.90;;;;;;5147448;27;20027;-66
2023/06/17 06:13:31;;;;;;;1.45;1.13;;;18.10;99.90;;;;;;5127366;27;20062;-67
2023/06/17 06:15:57;;;;;;;1.40;0.68;;;18.20;99.90;;;;;;5143818;27;20034;-67
2023/06/17 06:18:23;;;;;;;0.15;0.15;;;18.10;99.90;;;;;;5148498;27;20045;-66
2023/06/17 06:20:48;;;;;;;0.10;0.10;;;18.20;99.90;;;;;;5144164;27;20035;-66
2023/06/17 06:23:14;;;;;;;1.30;1.13;;;18.30;99.90;;;;;;5144414;27;20042;-67
2023/06/17 06:25:40;;;;;;;0.22;0.22;;;18.30;99.90;;;;;;5146150;27;20420;-66
2023/06/17 06:28:05;;;;;;;0.00;0.00;;;18.40;99.90;;;;;;5147906;27;20034;-66
2023/06/17 06:30:31;;;;;;;0.35;0.35;;;18.50;99.90;;;;;;5143602;27;20052;-67
2023/06/17 06:32:58;;;;;;;0.50;0.45;;;18.50;99.90;;;;;;5147563;27;20139;-66
2023/06/17 06:35:24;;;;;;;0.10;0.10;;;18.50;99.90;;;;;;5148178;27;20042;-66
2023/06/17 06:37:50;;;;;;;0.40;0.40;;;18.50;99.90;;;;;;5145792;27;20050;-66
2023/06/17 06:40:15;;;;;;;0.22;0.22;;;18.50;99.90;;;;;;5145240;27;20036;-66
2023/06/17 06:42:41;;;;;;;0.30;0.30;;;18.50;99.90;;;;;;5146961;27;20126;-66
2023/06/17 06:45:07;;;;;;;3.25;1.92;;;18.60;99.90;;;;;;5129477;27;20137;-67
2023/06/17 06:47:33;;;;;;;0.40;0.40;;;18.60;99.90;;;;;;5145146;27;20045;-67
2023/06/17 06:49:58;;;;;;;0.03;0.03;;;18.80;99.90;;;;;;5146190;27;20046;-66
2023/06/17 06:52:24;;;;;;;0.77;0.75;;;18.80;99.90;;;;;;5147129;27;20042;-66
2023/06/17 06:54:50;;;;;;;0.05;0.05;;;18.80;99.90;;;;;;5142881;27;20035;-67
2023/06/17 06:57:16;;;;;;;0.00;0.00;;;18.70;99.90;;;;;;5145764;27;20118;-67
2023/06/17 06:59:42;;;;;;;0.13;0.13;;;18.70;99.90;;;;;;5151383;27;20493;-66
2023/06/17 07:02:07;;;;;;;0.28;0.28;;;18.70;99.90;;;;;;5147624;27;20059;-67
2023/06/17 07:04:33;;;;;;;0.13;0.13;;;18.70;99.90;;;;;;5130095;27;20046;-66
2023/06/17 07:06:58;;;;;;;0.20;0.20;;;18.80;99.90;;;;;;5145224;27;20428;-66
2023/06/17 07:09:24;;;;;;;0.63;0.63;;;18.90;99.90;;;;;;5127114;27;20077;-66
2023/06/17 07:11:49;;;;;;;0.73;0.22;;;18.90;99.90;;;;;;5141153;27;20464;-66
2023/06/17 07:14:15;;;;;;;0.20;0.20;;;19.00;99.90;;;;;;5137616;27;20039;-66
2023/06/17 07:16:41;;;;;;;0.00;0.00;;;19.00;99.90;;;;;;5146922;27;20046;-66
2023/06/17 07:19:06;;;;;;;0.35;0.35;;;18.90;99.90;;;;;;5148957;27;20047;-66
2023/06/17 07:21:32;;;;;;;1.80;0.68;;;18.90;99.90;;;;;;5144281;27;20115;-66
2023/06/17 07:23:57;;;;;;;0.40;0.40;;;18.80;99.90;;;;;;5145653;27;20074;-66
2023/06/17 07:26:23;;;;;;;0.00;0.00;;;18.80;99.90;;;;;;5143106;27;20054;-66
2023/06/17 07:28:48;;;;;;;0.65;0.65;;;18.80;99.90;;;;;;5150527;27;20051;-66
2023/06/17 07:31:14;;;;;;;0.10;0.10;;;18.90;99.90;;;;;;5141720;27;20164;-67
2023/06/17 07:33:40;;;;;;;0.57;0.45;;;19.00;99.90;;;;;;5146321;27;20134;-67
2023/06/17 07:36:06;;;;;;;0.13;0.13;;;19.10;99.90;;;;;;5145104;27;20067;-66
2023/06/17 07:38:33;;;;;;;7.82;1.85;;;19.10;99.90;;;;;;5146710;27;20138;-66
2023/06/17 07:40:59;;;;;;;1.45;0.35;;;19.10;99.90;;;;;;5144241;27;20076;-66
2023/06/17 07:43:25;;;;;;;0.05;0.05;;;19.30;99.90;;;;;;5147335;27;20047;-66
2023/06/17 07:45:51;;;;;;;0.00;0.00;;;19.30;99.90;;;;;;5146901;27;20491;-67
2023/06/17 07:48:17;;;;;;;2.42;1.60;;;19.40;99.90;;;;;;5143136;27;20039;-66
2023/06/17 07:50:42;;;;;;;0.43;0.43;;;19.40;99.90;;;;;;5147777;27;20038;-67
2023/06/17 07:53:08;;;;;;;0.10;0.10;;;19.40;99.90;;;;;;5146035;27;20386;-66
2023/06/17 07:55:33;;;;;;;3.03;0.90;;;19.40;99.90;;;;;;5148024;27;20035;-66
2023/06/17 07:57:59;;;;;;;0.70;0.45;;;19.50;99.90;;;;;;5143065;27;20398;-67
2023/06/17 08:00:26;;;;;;;0.00;0.00;;;19.60;99.90;;;;;;5146962;27;20046;-66
2023/06/17 08:02:52;;;;;;;0.00;0.00;;;19.80;99.90;;;;;;5144317;27;20027;-66
2023/06/17 08:05:18;;;;;;;0.32;0.32;;;19.90;99.90;;;;;;5144004;27;20512;-66
2023/06/17 08:07:43;;;;;;;0.05;0.05;;;20.00;99.90;;;;;;5146402;27;20042;-67
2023/06/17 08:10:09;;;;;;;0.30;0.22;;;20.10;99.90;;;;;;5146469;27;20390;-66
2023/06/17 08:12:35;;;;;;;0.13;0.13;;;20.10;99.90;;;;;;5120299;27;20051;-66
2023/06/17 08:15:01;;;;;;;3.25;1.33;;;20.20;99.90;;;;;;5142298;27;20465;-67
2023/06/17 08:17:27;;;;;;;0.75;0.75;;;20.10;99.90;;;;;;5145010;27;20091;-66
2023/06/17 08:19:52;;;;;;;0.20;0.20;;;20.20;99.90;;;;;;5126490;27;20133;-67
2023/06/17 08:22:20;;;;;;;0.20;0.20;;;20.20;99.90;;;;;;5143249;27;20047;-66
2023/06/17 08:24:45;;;;;;;0.08;0.08;;;20.30;99.90;;;;;;5145195;27;20050;-66
2023/06/17 08:27:11;;;;;;;0.10;0.10;;;20.30;99.90;;;;;;5145082;27;20038;-67
2023/06/17 08:29:37;;;;;;;0.10;0.10;;;20.40;99.90;;;;;;5142344;27;20051;-66
2023/06/17 08:32:03;;;;;;;0.13;0.13;;;20.40;99.90;;;;;;5144585;27;20039;-66
2023/06/17 08:34:30;;;;;;;0.35;0.35;;;20.50;99.90;;;;;;5145388;27;20101;-67
2023/06/17 08:36:56;;;;;;;0.10;0.08;;;20.50;99.90;;;;;;5123701;27;20038;-66
2023/06/17 08:39:22;;;;;;;1.05;0.40;;;20.60;99.90;;;;;;5123113;27;20157;-66
2023/06/17 08:41:47;;;;;;;0.00;0.00;;;20.60;99.90;;;;;;5142713;27;20070;-66
2023/06/17 08:44:13;;;;;;;0.00;0.00;;;20.70;99.90;;;;;;5145454;27;20490;-66
2023/06/17 08:46:44;;;;;;;0.63;0.63;;;20.70;99.90;;;;;;5124993;27;20423;-66
2023/06/17 08:49:12;;;;;;;0.45;0.40;;;20.60;99.90;;;;;;5144058;27;20039;-66
2023/06/17 08:51:39;;;;;;;0.10;0.10;;;20.70;99.90;;;;;;5138295;27;20062;-66
2023/06/17 08:54:06;;;;;;;0.10;0.10;;;20.80;99.90;;;;;;5143937;27;20046;-67
2023/06/17 08:56:32;;;;;;;0.63;0.40;;;20.80;99.90;;;;;;5145677;27;20046;-66
2023/06/17 08:58:57;;;;;;;2.05;0.52;;;20.80;99.90;;;;;;5141840;27;20061;-67
2023/06/17 09:01:24;;;;;;;0.35;0.10;;;20.90;99.90;;;;;;5144707;27;20043;-66
2023/06/17 09:03:52;;;;;;;0.65;0.65;;;20.90;99.90;;;;;;5130294;27;20454;-66
2023/06/17 09:06:21;;;;;;;0.10;0.10;;;21.00;99.90;;;;;;5143990;27;20504;-66
2023/06/17 09:08:47;;;;;;;0.32;0.10;;;21.20;99.90;;;;;;5145543;27;20041;-66
2023/06/17 09:11:14;;;;;;;0.85;0.20;;;21.30;99.90;;;;;;5142635;27;20510;-67
2023/06/17 09:13:39;;;;;;;0.10;0.10;;;21.30;99.90;;;;;;5142998;27;20086;-67
2023/06/17 09:16:06;;;;;;;0.32;0.32;;;21.40;99.90;;;;;;5142688;27;20490;-67
2023/06/17 09:18:35;;;;;;;0.13;0.13;;;21.40;99.90;;;;;;5144107;27;20055;-66
2023/06/17 09:21:04;;;;;;;2.20;0.73;;;21.40;99.90;;;;;;5146470;27;20077;-66
2023/06/17 09:23:30;;;;;;;0.50;0.50;;;21.30;99.90;;;;;;5142587;27;20043;-66
2023/06/17 09:26:03;;;;;;;0.05;0.05;;;21.40;99.90;;;;;;5140863;27;20046;-66
2023/06/17 09:28:30;;;;;;;0.00;0.00;;;21.30;99.90;;;;;;5138749;27;20107;-66
2023/06/17 09:30:57;;;;;;;0.80;0.70;;;21.40;99.90;;;;;;5141168;27;20051;-66
2023/06/17 09:33:27;;;;;;;0.00;0.00;;;21.60;99.90;;;;;;5143808;27;20183;-66
2023/06/17 09:36:00;;;;;;;0.10;0.10;;;21.70;99.90;;;;;;5141680;27;20410;-67
2023/06/17 09:38:27;;;;;;;1.45;1.02;;;21.70;99.90;;;;;;5141501;27;20075;-67
2023/06/17 09:40:54;;;;;;;0.00;0.00;;;21.80;99.90;;;;;;5141637;27;20478;-66
2023/06/17 09:43:23;;;;;;;1.08;0.52;;;21.90;99.90;;;;;;5143580;27;20039;-67
2023/06/17 09:45:54;;;;;;;0.75;0.40;;;22.10;99.90;;;;;;5151719;27;20090;-66
2023/06/17 09:48:24;;;;;;;0.20;0.20;;;22.50;99.90;;;;;;5123196;27;20122;-67
2023/06/17 09:50:56;;;;;;;1.85;0.25;;;22.90;99.90;;;;;;5141783;27;20385;-66
2023/06/17 09:53:26;;;;;;;0.63;0.20;;;23.30;99.90;;;;;;5140292;27;20067;-66
2023/06/17 09:55:55;;;;;;;0.08;0.08;;;23.60;99.90;;;;;;5145576;27;20090;-67
2023/06/17 09:58:22;;;;;;;0.88;0.80;;;23.80;99.90;;;;;;5144264;27;20049;-66
2023/06/17 10:00:51;;;;;;;0.13;0.13;;;23.70;99.90;;;;;;5142967;27;20115;-67
2023/06/17 10:03:17;;;;;;;0.20;0.20;;;23.90;99.90;;;;;;5142339;27;20521;-67
2023/06/17 10:05:47;;;;;;;12.18;1.10;;;24.00;99.90;;;;;;5142105;27;20070;-66
2023/06/17 10:08:14;;;;;;;0.10;0.10;;;24.10;99.90;;;;;;5137573;27;20130;-67
2023/06/17 10:10:40;;;;;;;0.10;0.10;;;24.10;99.90;;;;;;5144072;27;20477;-67
2023/06/17 10:13:08;;;;;;;5.88;1.60;;;24.30;99.90;;;;;;5144298;27;20119;-67
2023/06/17 10:15:34;;;;;;;1.23;0.30;;;24.20;99.90;;;;;;5147535;27;20046;-67
2023/06/17 10:18:00;;;;;;;0.32;0.32;;;24.10;99.90;;;;;;5140212;27;20043;-66
2023/06/17 10:20:31;;;;;;;0.28;0.28;;;24.30;99.90;;;;;;5142474;27;20046;-66
2023/06/17 10:22:57;;;;;;;0.85;0.85;;;24.40;99.90;;;;;;5140799;27;20027;-66
2023/06/17 10:25:24;;;;;;;0.55;0.50;;;24.40;99.90;;;;;;5140976;27;20049;-67
2023/06/17 10:27:51;;;;;;;0.32;0.32;;;24.50;99.90;;;;;;5143890;27;20490;-67
2023/06/17 10:30:27;;;;;;;0.88;0.82;;;24.50;99.90;;;;;;5140382;27;20054;-66
2023/06/17 10:33:01;;;;;;;0.85;0.85;;;24.50;99.90;;;;;;5149474;27;20121;-67
2023/06/17 10:35:36;;;;;;;0.98;0.95;;;24.80;99.90;;;;;;5141888;27;20055;-67
2023/06/17 10:38:02;;;;;;;0.65;0.45;;;25.00;99.90;;;;;;5149231;27;20502;-67
2023/06/17 10:40:30;;;;;;;0.15;0.15;;;25.00;99.90;;;;;;5140907;27;20082;-66
2023/06/17 10:43:02;;;;;;;2.60;0.80;;;25.00;99.90;;;;;;5146444;27;20066;-66
2023/06/17 10:45:29;;;;;;;7.28;1.17;;;25.10;99.90;;;;;;5140599;27;20043;-67
2023/06/17 10:48:19;;;;;;;0.35;0.35;;;24.70;99.90;;;;;;5143423;27;20038;-66
2023/06/17 10:50:48;;;;;;;0.75;0.75;;;25.10;99.90;;;;;;5143315;27;20426;-66
2023/06/17 10:53:17;;;;;;;0.20;0.20;;;25.30;99.90;;;;;;5140010;27;20051;-67
2023/06/17 10:55:43;;;;;;;3.30;1.83;;;25.00;99.90;;;;;;5147350;27;20031;-67
2023/06/17 10:58:09;;;;;;;0.43;0.43;;;25.40;99.90;;;;;;5139564;27;20082;-67
2023/06/17 11:00:35;;;;;;;0.35;0.35;;;25.30;99.90;;;;;;5130786;27;20045;-67
2023/06/17 11:03:01;;;;;;;0.25;0.25;;;25.30;99.90;;;;;;5148182;27;20035;-67
2023/06/17 11:05:33;;;;;;;0.68;0.68;;;25.50;99.90;;;;;;5125073;27;20047;-67
2023/06/17 11:07:59;;;;;;;0.55;0.47;;;25.80;99.90;;;;;;5149265;27;20047;-67
2023/06/17 11:10:25;;;;;;;0.20;0.20;;;25.80;99.90;;;;;;5146546;27;20550;-67
2023/06/17 11:12:50;;;;;;;0.10;0.10;;;26.00;99.90;;;;;;5149207;27;20035;-67
2023/06/17 11:15:16;;;;;;;1.17;0.60;;;25.90;99.90;;;;;;5143815;27;20051;-67
2023/06/17 11:17:42;;;;;;;0.22;0.22;;;26.10;99.90;;;;;;5150086;27;20047;-67
2023/06/17 11:20:08;;;;;;;0.17;0.17;;;26.30;99.90;;;;;;5142103;27;20070;-67
2023/06/17 11:22:38;;;;;;;0.00;0.00;;;26.40;99.90;;;;;;5145492;27;20039;-67
2023/06/17 11:25:04;;;;;;;0.10;0.10;;;26.20;99.90;;;;;;5142281;27;20065;-67
2023/06/17 11:27:30;;;;;;;0.15;0.15;;;26.50;99.90;;;;;;5144597;27;20446;-66
2023/06/17 11:29:56;;;;;;;0.93;0.75;;;26.70;99.90;;;;;;5154021;27;20081;-67
2023/06/17 11:32:22;;;;;;;0.38;0.32;;;26.60;99.90;;;;;;5145083;27;20131;-67
2023/06/17 11:34:50;;;;;;;0.32;0.28;;;27.00;99.90;;;;;;5145037;27;20049;-67
2023/06/17 11:37:16;;;;;;;8.07;1.13;;;27.00;99.90;;;;;;5147897;27;20423;-67
2023/06/17 11:39:42;;;;;;;0.20;0.20;;;27.10;99.50;;;;;;5147551;27;20071;-67
2023/06/17 11:42:09;;;;;;;0.30;0.30;;;27.00;99.00;;;;;;5126945;27;20255;-67
2023/06/17 11:44:36;;;;;;;0.43;0.43;;;27.10;99.50;;;;;;5139704;27;20047;-67
2023/06/17 11:47:08;;;;;;;0.20;0.20;;;26.90;99.60;;;;;;5144806;27;20106;-67
2023/06/17 11:49:35;;;;;;;0.75;0.63;;;27.20;98.40;;;;;;5146908;27;20412;-67
2023/06/17 11:52:08;;;;;;;0.10;0.10;;;26.90;99.00;;;;;;5127160;27;20070;-67
2023/06/17 11:54:49;;;;;;;0.30;0.30;;;27.10;99.90;;;;;;5141797;27;20082;-67
2023/06/17 11:57:20;;;;;;;0.43;0.30;;;27.10;98.80;;;;;;5147575;27;20073;-67
2023/06/17 11:59:46;;;;;;;0.00;0.00;;;27.10;98.20;;;;;;5142694;27;20435;-67
2023/06/17 12:02:12;;;;;;;0.10;0.10;;;27.40;99.80;;;;;;5144252;27;20114;-67
2023/06/17 12:04:38;;;;;;;0.20;0.20;;;27.60;99.50;;;;;;5148944;27;20078;-67
2023/06/17 12:07:06;;;;;;;0.30;0.30;;;27.50;98.60;;;;;;5142723;27;20059;-67
2023/06/17 12:09:36;;;;;;;0.85;0.82;;;27.70;99.60;;;;;;5143508;27;20031;-67
2023/06/17 12:12:02;;;;;;;0.30;0.30;;;27.90;99.20;;;;;;5129675;27;20047;-67
2023/06/17 12:14:27;;;;;;;0.45;0.45;;;28.30;98.70;;;;;;5141788;27;20054;-67
2023/06/17 12:16:53;;;;;;;0.45;0.43;;;28.30;98.30;;;;;;5140403;27;20477;-67
2023/06/17 12:19:24;;;;;;;0.65;0.38;;;28.40;97.90;;;;;;5127677;27;20043;-67
2023/06/17 12:21:50;;;;;;;0.57;0.57;;;28.30;98.00;;;;;;5140425;27;20083;-67
2023/06/17 12:24:17;;;;;;;1.02;0.20;;;28.30;97.80;;;;;;5142721;27;20043;-67
2023/06/17 12:26:44;;;;;;;0.75;0.63;;;28.10;97.50;;;;;;5149169;27;20034;-67
2023/06/17 12:29:10;;;;;;;7.38;1.75;;;28.10;97.40;;;;;;5120800;27;20740;-67
2023/06/17 12:31:36;;;;;;;0.43;0.30;;;28.30;97.90;;;;;;5126526;27;20478;-67
2023/06/17 12:34:02;;;;;;;0.00;0.00;;;28.40;98.10;;;;;;5142305;27;20071;-67
2023/06/17 12:36:30;;;;;;;0.10;0.10;;;28.80;97.50;;;;;;5142154;27;20065;-68
2023/06/17 12:38:56;;;;;;;0.75;0.75;;;28.70;96.20;;;;;;5145115;27;20122;-67
2023/06/17 12:41:21;;;;;;;0.38;0.28;;;28.70;96.90;;;;;;5144212;27;20125;-67
2023/06/17 12:43:47;;;;;;;5.18;0.43;;;28.90;97.90;;;;;;5142270;27;20101;-67
2023/06/17 12:46:14;;;;;;;0.35;0.35;;;28.90;97.50;;;;;;5145563;27;20043;-67